createdAt,value
2023-03-20T00:00:32.535Z,97726.22
2023-03-20T00:03:02.523Z,97703.13
2023-03-20T00:05:32.042Z,97715.97
2023-03-20T00:08:01.951Z,97715.97
2023-03-20T00:10:35.761Z,97724.53
2023-03-20T00:13:04.700Z,97721.91
2023-03-20T00:15:36.551Z,97695.50
2023-03-20T00:18:06.483Z,97706.69
2023-03-20T00:20:34.385Z,97706.44
2023-03-20T00:23:04.252Z,97716.66
2023-03-20T00:25:32.512Z,97737.41
2023-03-20T00:28:00.387Z,97739.19
2023-03-20T00:30:31.207Z,97706.56
2023-03-20T00:33:00.236Z,97684.19
2023-03-20T00:35:30.406Z,97714.31
2023-03-20T00:37:59.267Z,97730.63
2023-03-20T00:40:32.341Z,97729.78
2023-03-20T00:43:02.247Z,97745.88
2023-03-20T00:45:31.571Z,97751.97
2023-03-20T00:48:00.707Z,97726.22
2023-03-20T00:50:30.758Z,97733.13
2023-03-20T00:52:59.931Z,97777.69
2023-03-20T00:55:30.788Z,97769.09
2023-03-20T00:58:00.342Z,97750.16
2023-03-20T01:00:37.992Z,97758.88
2023-03-20T01:03:13.387Z,97760.53
2023-03-20T01:05:41.356Z,97748.84
2023-03-20T01:08:17.093Z,97738.38
2023-03-20T01:10:47.565Z,97747.75
2023-03-20T01:13:21.316Z,97762.69
2023-03-20T01:15:50.239Z,97794.00
2023-03-20T01:18:19.029Z,97791.50
2023-03-20T01:20:47.344Z,97787.09
2023-03-20T01:23:15.393Z,97769.09
2023-03-20T01:25:43.707Z,97769.94
2023-03-20T01:28:18.380Z,97799.13
2023-03-20T01:30:47.118Z,97792.91
2023-03-20T01:33:17.090Z,97770.75
2023-03-20T01:35:45.903Z,97784.59
2023-03-20T01:38:16.321Z,97781.84
2023-03-20T01:40:54.199Z,97801.63
2023-03-20T01:43:25.124Z,97801.75
2023-03-20T01:46:00.398Z,97794.00
2023-03-20T01:48:37.821Z,97811.97
2023-03-20T01:51:05.998Z,97805.91
2023-03-20T01:53:34.049Z,97803.41
2023-03-20T01:56:02.449Z,97786.25
2023-03-20T01:58:37.380Z,97794.69
2023-03-20T02:01:06.820Z,97833.56
2023-03-20T02:03:35.386Z,97831.63
2023-03-20T02:06:03.142Z,97816.00
2023-03-20T02:08:32.848Z,97833.16
2023-03-20T02:11:03.183Z,97841.03
2023-03-20T02:13:33.774Z,97875.41
2023-03-20T02:16:07.423Z,97883.13
2023-03-20T02:18:36.206Z,97886.59
2023-03-20T02:21:38.344Z,97883.97
2023-03-20T02:24:32.275Z,97873.72
2023-03-20T02:27:07.441Z,97851.28
2023-03-20T02:33:15.791Z,97878.97
2023-03-20T02:36:00.390Z,97872.91
2023-03-20T02:38:45.175Z,97862.50
2023-03-20T02:41:23.074Z,97871.94
2023-03-20T02:44:01.466Z,97883.97
2023-03-20T02:46:37.338Z,97893.38
2023-03-20T02:49:15.642Z,97876.22
2023-03-20T02:51:51.757Z,97895.88
2023-03-20T02:54:29.477Z,97882.31
2023-03-20T02:57:04.199Z,97895.88
2023-03-20T02:59:37.718Z,97904.59
2023-03-20T03:02:09.595Z,97898.63
2023-03-20T03:04:41.733Z,97902.22
2023-03-20T03:07:12.415Z,97913.16
2023-03-20T03:09:46.242Z,97897.22
2023-03-20T03:12:18.929Z,97891.72
2023-03-20T03:14:49.783Z,97880.63
2023-03-20T03:17:19.860Z,97938.78
2023-03-20T03:19:51.098Z,97954.28
2023-03-20T03:22:20.016Z,97931.03
2023-03-20T03:24:52.076Z,97957.63
2023-03-20T03:27:24.251Z,97944.03
2023-03-20T03:29:56.989Z,97933.78
2023-03-20T03:32:30.579Z,97924.38
2023-03-20T03:34:59.764Z,97949.03
2023-03-20T03:37:47.014Z,97954.28
2023-03-20T03:40:25.375Z,97954.28
2023-03-20T03:42:58.850Z,97942.25
2023-03-20T03:45:34.376Z,97985.06
2023-03-20T03:48:08.095Z,98011.09
2023-03-20T03:50:46.404Z,97985.06
2023-03-20T03:53:16.022Z,97998.91
2023-03-20T03:55:49.310Z,97998.91
2023-03-20T03:58:21.518Z,97999.88
2023-03-20T04:00:52.888Z,98014.44
2023-03-20T04:03:24.160Z,98006.94
2023-03-20T04:05:55.711Z,97966.22
2023-03-20T04:08:23.473Z,97996.28
2023-03-20T04:10:53.044Z,98011.94
2023-03-20T04:13:20.991Z,98028.25
2023-03-20T04:15:48.724Z,98050.44
2023-03-20T04:18:18.783Z,98042.56
2023-03-20T04:20:47.702Z,98026.34
2023-03-20T04:23:16.122Z,98049.03
2023-03-20T04:25:44.251Z,98066.78
2023-03-20T04:28:16.299Z,98081.34
2023-03-20T04:30:48.281Z,98074.53
2023-03-20T04:33:16.474Z,98059.03
2023-03-20T04:35:44.424Z,98076.22
2023-03-20T04:38:12.674Z,98094.09
2023-03-20T04:40:40.615Z,98073.59
2023-03-20T04:43:08.331Z,98054.66
2023-03-20T04:45:37.994Z,98107.22
2023-03-20T04:48:06.631Z,98114.06
2023-03-20T04:50:34.474Z,98103.69
2023-03-20T04:53:02.233Z,98118.25
2023-03-20T04:55:30.003Z,98120.88
2023-03-20T04:57:57.784Z,98121.00
2023-03-20T05:00:25.846Z,98128.03
2023-03-20T05:02:55.005Z,98169.09
2023-03-20T05:05:23.819Z,98171.59
2023-03-20T05:07:51.796Z,98170.63
2023-03-20T05:10:20.180Z,98199.03
2023-03-20T05:12:48.661Z,98222.31
2023-03-20T05:15:16.711Z,98224.97
2023-03-20T05:17:44.472Z,98234.28
2023-03-20T05:20:14.134Z,98220.53
2023-03-20T05:22:42.146Z,98233.69
2023-03-20T05:25:10.650Z,98268.69
2023-03-20T05:27:38.464Z,98263.69
2023-03-20T05:30:07.443Z,98296.16
2023-03-20T05:32:36.922Z,98298.78
2023-03-20T05:35:05.276Z,98302.13
2023-03-20T05:37:34.664Z,98318.38
2023-03-20T05:40:03.228Z,98325.31
2023-03-20T05:42:31.324Z,98370.03
2023-03-20T05:44:59.247Z,98390.81
2023-03-20T05:47:26.996Z,98397.50
2023-03-20T05:49:54.726Z,98407.44
2023-03-20T05:52:23.332Z,98427.75
2023-03-20T05:54:52.413Z,98439.13
2023-03-20T05:57:20.767Z,98463.06
2023-03-20T05:59:48.559Z,98488.88
2023-03-20T06:02:17.295Z,98488.75
2023-03-20T06:04:45.226Z,98519.72
2023-03-20T06:07:12.977Z,98521.41
2023-03-20T06:09:40.926Z,98550.72
2023-03-20T06:12:10.607Z,98581.72
2023-03-20T06:14:38.344Z,98608.41
2023-03-20T06:17:06.102Z,98595.47
2023-03-20T06:19:33.825Z,98633.44
2023-03-20T06:22:01.803Z,98649.00
2023-03-20T06:24:29.615Z,98640.25
2023-03-20T06:26:57.489Z,98659.28
2023-03-20T06:29:26.880Z,98638.94
2023-03-20T06:31:54.600Z,98660.25
2023-03-20T06:34:22.541Z,98642.03
2023-03-20T06:36:50.347Z,98665.38
2023-03-20T06:39:18.228Z,98674.72
2023-03-20T06:41:46.211Z,98685.97
2023-03-20T06:44:14.189Z,98714.88
2023-03-20T06:46:43.477Z,98730.91
2023-03-20T06:49:11.244Z,98742.41
2023-03-20T06:51:39.157Z,98775.69
2023-03-20T06:54:07.065Z,98818.84
2023-03-20T06:56:34.857Z,98825.69
2023-03-20T06:59:02.771Z,98821.38
2023-03-20T07:01:30.832Z,98892.91
2023-03-20T07:04:01.114Z,98926.50
2023-03-20T07:06:29.090Z,98952.41
2023-03-20T07:08:56.996Z,98967.16
2023-03-20T07:11:25.003Z,98997.38
2023-03-20T07:13:52.769Z,99040.44
2023-03-20T07:16:21.061Z,99044.78
2023-03-20T07:18:48.815Z,98993.03
2023-03-20T07:21:21.873Z,99030.97
2023-03-20T07:23:49.851Z,99014.53
2023-03-20T07:26:18.053Z,99042.16
2023-03-20T07:28:45.913Z,99087.06
2023-03-20T07:31:20.620Z,99044.88
2023-03-20T07:33:48.570Z,99050.16
2023-03-20T07:36:16.375Z,99098.53
2023-03-20T07:38:45.681Z,99108.78
2023-03-20T07:41:13.643Z,99150.19
2023-03-20T07:43:42.989Z,99183.81
2023-03-20T07:46:12.075Z,99246.97
2023-03-20T07:48:39.960Z,99353.34
2023-03-20T07:51:08.516Z,99368.13
2023-03-20T07:53:37.045Z,99406.84
2023-03-20T07:56:07.083Z,99398.41
2023-03-20T07:58:34.816Z,99397.44
2023-03-20T08:01:03.599Z,99374.13
2023-03-20T08:03:31.721Z,99404.41
2023-03-20T08:05:59.581Z,99404.34
2023-03-20T08:08:28.419Z,99414.06
2023-03-20T08:10:56.515Z,99449.41
2023-03-20T08:13:25.762Z,99470.94
2023-03-20T08:15:53.588Z,99514.25
2023-03-20T08:18:22.567Z,99542.06
2023-03-20T08:20:50.853Z,99578.38
2023-03-20T08:23:20.658Z,99576.69
2023-03-20T08:25:49.643Z,99613.03
2023-03-20T08:28:18.199Z,99627.72
2023-03-20T08:30:47.619Z,99655.44
2023-03-20T08:33:17.368Z,99716.13
2023-03-20T08:35:45.285Z,99719.72
2023-03-20T08:38:14.633Z,99701.44
2023-03-20T08:40:42.888Z,99759.59
2023-03-20T08:43:10.762Z,99793.25
2023-03-20T08:45:38.877Z,99831.78
2023-03-20T08:48:08.721Z,99875.66
2023-03-20T08:50:37.349Z,99916.66
2023-03-20T08:53:05.298Z,99954.78
2023-03-20T08:55:33.177Z,99979.13
2023-03-20T08:58:01.130Z,99995.66
2023-03-20T09:00:28.938Z,99999.88
2023-03-20T09:02:57.142Z,100019.94
2023-03-20T09:05:26.453Z,100062.41
2023-03-20T09:07:54.341Z,100137.16
2023-03-20T09:10:23.330Z,100079.78
2023-03-20T09:12:51.187Z,100089.53
2023-03-20T09:15:19.192Z,100046.69
2023-03-20T09:17:47.222Z,100047.16
2023-03-20T09:20:15.071Z,100073.00
2023-03-20T09:22:45.443Z,100128.53
2023-03-20T09:25:13.899Z,100111.16
2023-03-20T09:27:42.151Z,100114.56
2023-03-20T09:30:11.917Z,100152.94
2023-03-20T09:32:39.894Z,100141.59
2023-03-20T09:35:08.041Z,100131.13
2023-03-20T09:37:36.497Z,100168.41
2023-03-20T09:40:06.844Z,100210.19
2023-03-20T09:42:47.170Z,100199.81
2023-03-20T09:45:24.885Z,100179.78
2023-03-20T09:48:00.048Z,100194.50
2023-03-20T09:50:35.730Z,100197.91
2023-03-20T09:53:09.306Z,100152.31
2023-03-20T09:55:40.815Z,100116.34
2023-03-20T09:58:14.908Z,100087.72
2023-03-20T10:00:47.337Z,100065.16
2023-03-20T10:03:22.061Z,100023.41
2023-03-20T10:05:55.573Z,100003.47
2023-03-20T10:08:29.024Z,99998.41
2023-03-20T10:11:13.041Z,100010.47
2023-03-20T10:14:03.912Z,100019.94
2023-03-20T10:16:46.708Z,100063.47
2023-03-20T10:19:23.168Z,100076.59
2023-03-20T10:21:58.242Z,100051.38
2023-03-20T10:24:30.659Z,99996.50
2023-03-20T10:27:07.915Z,99939.53
2023-03-20T10:29:48.948Z,99910.94
2023-03-20T10:32:24.835Z,99866.47
2023-03-20T10:35:03.023Z,99819.50
2023-03-20T10:37:43.837Z,99790.94
2023-03-20T10:40:27.713Z,99805.13
2023-03-20T10:43:00.564Z,99852.63
2023-03-20T10:45:35.854Z,99924.72
2023-03-20T10:48:08.050Z,99955.84
2023-03-20T10:50:40.829Z,99975.00
2023-03-20T10:53:09.517Z,99900.34
2023-03-20T10:55:41.466Z,99911.69
2023-03-20T10:58:18.975Z,99883.84
2023-03-20T11:00:47.052Z,99813.56
2023-03-20T11:03:23.440Z,99730.41
2023-03-20T11:06:08.936Z,99786.78
2023-03-20T11:08:40.773Z,99795.38
2023-03-20T11:11:09.146Z,99837.91
2023-03-20T11:13:40.778Z,99840.44
2023-03-20T11:16:23.289Z,99869.13
2023-03-20T11:18:52.631Z,99907.34
2023-03-20T11:21:24.083Z,99885.63
2023-03-20T11:23:52.547Z,99859.72
2023-03-20T11:26:29.050Z,99860.44
2023-03-20T11:29:00.559Z,99965.81
2023-03-20T11:31:35.500Z,100091.31
2023-03-20T11:34:12.733Z,100168.63
2023-03-20T11:36:41.352Z,100162.50
2023-03-20T11:39:15.159Z,100142.56
2023-03-20T11:41:48.563Z,100140.88
2023-03-20T11:44:26.252Z,100137.28
2023-03-20T11:47:03.637Z,100207.75
2023-03-20T11:49:33.075Z,100276.41
2023-03-20T11:52:04.195Z,100279.03
2023-03-20T11:54:32.187Z,100298.13
2023-03-20T11:57:01.357Z,100349.47
2023-03-20T11:59:34.530Z,100379.09
2023-03-20T12:02:05.287Z,100450.22
2023-03-20T12:04:37.440Z,100514.81
2023-03-20T12:07:13.252Z,100603.63
2023-03-20T12:09:43.997Z,100624.47
2023-03-20T12:12:20.568Z,100629.69
2023-03-20T12:14:58.205Z,100677.63
2023-03-20T12:17:33.891Z,100667.22
2023-03-20T12:20:07.877Z,100636.81
2023-03-20T12:22:39.717Z,100660.50
2023-03-20T12:25:20.086Z,100635.00
2023-03-20T12:27:56.788Z,100607.22
2023-03-20T12:30:33.182Z,100576.75
2023-03-20T12:33:05.611Z,100519.50
2023-03-20T12:35:37.695Z,100488.66
2023-03-20T12:38:13.630Z,100429.63
2023-03-20T12:40:44.739Z,100418.50
2023-03-20T12:43:16.856Z,100379.09
2023-03-20T12:45:53.966Z,100359.25
2023-03-20T12:48:40.968Z,100311.28
2023-03-20T12:51:17.565Z,100262.56
2023-03-20T12:53:56.422Z,100222.72
2023-03-20T12:56:51.502Z,100154.00
2023-03-20T12:59:28.332Z,100163.44
2023-03-20T13:02:04.854Z,100260.88
2023-03-20T13:04:59.236Z,100346.94
2023-03-20T13:07:50.482Z,100416.56
2023-03-20T13:10:22.426Z,100440.03
2023-03-20T13:13:05.575Z,100447.03
2023-03-20T13:15:49.308Z,100417.53
2023-03-20T13:18:23.682Z,100455.75
2023-03-20T13:20:53.659Z,100433.25
2023-03-20T13:23:27.296Z,100415.72
2023-03-20T13:26:17.174Z,100408.84
2023-03-20T13:28:56.061Z,100345.34
2023-03-20T13:31:47.029Z,100282.66
2023-03-20T13:34:29.999Z,100161.00
2023-03-20T13:37:22.393Z,100016.72
2023-03-20T13:40:01.837Z,99903.09
2023-03-20T13:42:33.939Z,99841.41
2023-03-20T13:45:08.776Z,99772.94
2023-03-20T13:47:39.228Z,99681.16
2023-03-20T13:50:26.668Z,99561.94
2023-03-20T13:53:02.757Z,99516.72
2023-03-20T13:55:42.304Z,99484.63
2023-03-20T13:58:24.126Z,99416.16
2023-03-20T14:00:56.201Z,99347.16
2023-03-20T14:03:28.607Z,99269.28
2023-03-20T14:05:57.918Z,99202.94
2023-03-20T14:08:34.346Z,99220.78
2023-03-20T14:11:32.558Z,99212.38
2023-03-20T14:14:07.414Z,99173.44
2023-03-20T14:16:35.517Z,99162.16
2023-03-20T14:19:10.588Z,99137.19
2023-03-20T14:21:46.757Z,99118.91
2023-03-20T14:24:19.568Z,99055.06
2023-03-20T14:26:51.115Z,99025.66
2023-03-20T14:29:34.063Z,98999.16
2023-03-20T14:32:23.122Z,98954.88
2023-03-20T14:34:53.250Z,99005.16
2023-03-20T14:37:32.109Z,99019.66
2023-03-20T14:40:08.177Z,99052.28
2023-03-20T14:42:49.448Z,99079.09
2023-03-20T14:45:45.911Z,98987.66
2023-03-20T14:48:26.685Z,98963.63
2023-03-20T14:51:07.387Z,98937.75
2023-03-20T14:53:36.642Z,98913.53
2023-03-20T14:56:10.523Z,98807.56
2023-03-20T14:58:56.730Z,98801.56
2023-03-20T15:01:47.981Z,98791.16
2023-03-20T15:04:28.143Z,98736.16
2023-03-20T15:07:01.151Z,98709.44
2023-03-20T15:09:34.073Z,98702.03
2023-03-20T15:12:04.400Z,98671.25
2023-03-20T15:14:39.316Z,98649.00
2023-03-20T15:17:07.295Z,98634.41
2023-03-20T15:19:41.220Z,98589.63
2023-03-20T15:22:17.257Z,98543.91
2023-03-20T15:24:53.204Z,98502.63
2023-03-20T15:27:21.586Z,98492.22
2023-03-20T15:29:53.354Z,98510.19
2023-03-20T15:32:21.920Z,98531.00
2023-03-20T15:34:51.090Z,98508.75
2023-03-20T15:37:22.993Z,98464.00
2023-03-20T15:39:56.195Z,98426.22
2023-03-20T15:42:26.686Z,98431.25
2023-03-20T15:44:55.844Z,98382.13
2023-03-20T15:47:25.046Z,98372.91
2023-03-20T15:49:55.756Z,98299.31
2023-03-20T15:52:29.778Z,98323.19
2023-03-20T15:55:01.361Z,98312.56
2023-03-20T15:57:35.571Z,98321.28
2023-03-20T16:00:05.819Z,98300.88
2023-03-20T16:02:33.962Z,98269.78
2023-03-20T16:05:01.972Z,98251.75
2023-03-20T16:07:31.801Z,98201.84
2023-03-20T16:10:01.228Z,98134.00
2023-03-20T16:12:29.074Z,98099.66
2023-03-20T16:14:59.096Z,98104.91
2023-03-20T16:17:28.820Z,98073.03
2023-03-20T16:19:57.092Z,98075.81
2023-03-20T16:22:28.254Z,98031.75
2023-03-20T16:24:59.907Z,98025.06
2023-03-20T16:27:31.488Z,97988.81
2023-03-20T16:29:59.646Z,98012.06
2023-03-20T16:32:37.054Z,98027.56
2023-03-20T16:35:09.308Z,97999.31
2023-03-20T16:37:44.365Z,97958.91
2023-03-20T16:40:17.148Z,97939.22
2023-03-20T16:42:46.730Z,97928.84
2023-03-20T16:45:22.733Z,97926.22
2023-03-20T16:47:50.786Z,97921.09
2023-03-20T16:50:22.036Z,97889.38
2023-03-20T16:52:52.607Z,97852.72
2023-03-20T16:55:26.178Z,97856.16
2023-03-20T16:57:59.093Z,97852.69
2023-03-20T17:00:30.329Z,97847.56
2023-03-20T17:03:10.535Z,97831.38
2023-03-20T17:05:55.218Z,97826.13
2023-03-20T17:08:35.135Z,97795.38
2023-03-20T17:11:10.433Z,97790.13
2023-03-20T17:13:40.142Z,97778.22
2023-03-20T17:16:11.221Z,97764.41
2023-03-20T17:18:39.345Z,97767.03
2023-03-20T17:21:08.214Z,97749.19
2023-03-20T17:23:36.113Z,97738.81
2023-03-20T17:26:04.166Z,97726.09
2023-03-20T17:28:35.985Z,97727.75
2023-03-20T17:31:06.480Z,97726.09
2023-03-20T17:33:36.360Z,97701.19
2023-03-20T17:36:04.588Z,97701.19
2023-03-20T17:38:32.648Z,97710.63
2023-03-20T17:41:00.418Z,97709.66
2023-03-20T17:43:28.186Z,97705.38
2023-03-20T17:45:56.189Z,97696.75
2023-03-20T17:48:26.936Z,97693.44
2023-03-20T17:50:54.779Z,97676.16
2023-03-20T17:53:26.271Z,97676.31
2023-03-20T17:55:54.287Z,97652.38
2023-03-20T17:58:24.363Z,97607.88
2023-03-20T18:00:53.714Z,97590.63
2023-03-20T18:03:22.495Z,97582.28
2023-03-20T18:05:52.488Z,97552.06
2023-03-20T18:08:23.273Z,97531.47
2023-03-20T18:10:52.805Z,97566.00
2023-03-20T18:13:21.263Z,97556.59
2023-03-20T18:15:49.739Z,97552.31
2023-03-20T18:18:17.714Z,97534.22
2023-03-20T18:20:46.989Z,97505.22
2023-03-20T18:23:16.625Z,97426.38
2023-03-20T18:25:44.444Z,97411.06
2023-03-20T18:28:23.364Z,97366.63
2023-03-20T18:30:51.714Z,97356.38
2023-03-20T18:33:25.070Z,97318.03
2023-03-20T18:35:53.116Z,97254.03
2023-03-20T18:38:24.747Z,97228.38
2023-03-20T18:40:52.754Z,97205.34
2023-03-20T18:43:20.938Z,97183.16
2023-03-20T18:45:49.009Z,97199.41
2023-03-20T18:48:17.836Z,97175.44
2023-03-20T18:50:50.869Z,97156.69
2023-03-20T18:53:18.976Z,97132.81
2023-03-20T18:55:48.218Z,97146.50
2023-03-20T18:58:22.577Z,97131.03
2023-03-20T19:00:50.911Z,97145.53
2023-03-20T19:03:18.707Z,97170.47
2023-03-20T19:05:46.585Z,97181.50
2023-03-20T19:08:16.922Z,97217.06
2023-03-20T19:10:45.125Z,97244.75
2023-03-20T19:13:16.849Z,97274.44
2023-03-20T19:15:45.442Z,97282.16
2023-03-20T19:18:17.235Z,97272.78
2023-03-20T19:20:46.499Z,97282.88
2023-03-20T19:23:15.675Z,97299.00
2023-03-20T19:25:46.143Z,97295.69
2023-03-20T19:28:21.956Z,97258.38
2023-03-20T19:30:52.255Z,97259.84
2023-03-20T19:33:20.214Z,97249.63
2023-03-20T19:36:12.075Z,97234.28
2023-03-20T19:38:37.411Z,97231.81
2023-03-20T19:41:05.803Z,97241.06
2023-03-20T19:43:51.467Z,97236.91
2023-03-20T19:46:38.213Z,97217.34
2023-03-20T19:49:07.074Z,97235.00
2023-03-20T19:51:35.086Z,97224.09
2023-03-20T19:54:04.114Z,97195.84
2023-03-20T19:56:31.976Z,97208.78
2023-03-20T19:59:01.397Z,97201.91
2023-03-20T20:01:29.251Z,97172.94
2023-03-20T20:03:58.327Z,97165.25
2023-03-20T20:06:31.331Z,97157.25
2023-03-20T20:09:01.311Z,97174.47
2023-03-20T20:11:29.598Z,97182.31
2023-03-20T20:14:06.275Z,97167.59
2023-03-20T20:16:39.700Z,97167.72
2023-03-20T20:19:07.823Z,97178.75
2023-03-20T20:22:19.638Z,97223.13
2023-03-20T20:24:23.988Z,97213.75
2023-03-20T20:26:59.987Z,97240.94
2023-03-20T20:29:35.064Z,97236.91
2023-03-20T20:32:04.237Z,97231.69
2023-03-20T20:40:10.197Z,97189.34
2023-03-20T20:42:38.371Z,97161.66
2023-03-20T20:45:08.599Z,97137.69
2023-03-20T20:47:37.792Z,97131.03
2023-03-20T20:50:08.669Z,97115.59
2023-03-20T20:52:39.172Z,97092.72
2023-03-20T20:55:36.579Z,97033.78
2023-03-20T20:57:59.382Z,96980.19
2023-03-20T21:00:45.271Z,96947.03
2023-03-20T21:03:17.442Z,96894.44
2023-03-20T21:05:45.342Z,96874.34
2023-03-20T21:08:14.249Z,96848.22
2023-03-20T21:10:42.488Z,96820.00
2023-03-20T21:13:12.390Z,96825.94
2023-03-20T21:15:40.989Z,96791.81
2023-03-20T21:18:09.020Z,96778.03
2023-03-20T21:20:39.385Z,96748.47
2023-03-20T21:23:07.213Z,96718.66
2023-03-20T21:25:40.936Z,96679.59
2023-03-20T21:28:09.944Z,96633.16
2023-03-20T21:30:44.327Z,96605.56
2023-03-20T21:33:24.268Z,96574.91
2023-03-20T21:35:54.353Z,96568.16
2023-03-20T21:38:58.655Z,96539.34
2023-03-20T21:41:11.150Z,96503.78
2023-03-20T21:43:39.486Z,96474.00
2023-03-20T21:46:42.287Z,96433.88
2023-03-20T21:55:12.883Z,96439.94
2023-03-20T22:01:10.956Z,96535.91
2023-03-20T22:03:10.007Z,96611.47
2023-03-20T22:20:29.250Z,96779.69
2023-03-20T22:34:32.571Z,96789.31
2023-03-20T22:40:09.956Z,96789.91
2023-03-20T22:45:02.204Z,96808.03
2023-03-20T22:47:31.864Z,96798.69
2023-03-20T22:49:59.840Z,96802.00
2023-03-20T22:52:38.345Z,96778.75
2023-03-20T22:55:13.801Z,96788.25
2023-03-20T22:57:52.837Z,96802.00
2023-03-20T23:00:27.721Z,96788.50
2023-03-20T23:03:06.726Z,96786.59
2023-03-20T23:05:42.201Z,96779.69
2023-03-20T23:08:11.884Z,96778.03
2023-03-20T23:10:44.204Z,96793.47
2023-03-20T23:13:14.329Z,96778.31
2023-03-20T23:15:42.502Z,96797.03
2023-03-20T23:18:11.716Z,96770.75
2023-03-20T23:20:39.725Z,96781.47
2023-03-20T23:23:07.697Z,96778.19
2023-03-20T23:25:39.797Z,96779.97
2023-03-20T23:28:09.089Z,96786.00
2023-03-20T23:30:46.786Z,96777.34
2023-03-20T23:33:19.737Z,96766.22
2023-03-20T23:35:48.806Z,96741.47
2023-03-20T23:38:17.559Z,96740.66
2023-03-20T23:40:50.156Z,96771.31
2023-03-20T23:43:18.623Z,96726.72
2023-03-20T23:45:48.097Z,96754.53
2023-03-20T23:48:16.917Z,96735.69
2023-03-20T23:50:52.910Z,96742.56
2023-03-20T23:53:21.635Z,96743.41
2023-03-20T23:55:50.920Z,96748.34
2023-03-20T23:58:19.278Z,96762.09
